createdAt,value
2018-04-23T00:00:49.177Z,99.99
2018-04-23T00:02:10.985Z,99.99
2018-04-23T00:03:32.779Z,99.99
2018-04-23T00:04:54.575Z,99.99
2018-04-23T00:06:16.126Z,99.99
2018-04-23T00:07:37.908Z,99.99
2018-04-23T00:08:59.449Z,99.99
2018-04-23T00:10:21.310Z,99.99
2018-04-23T00:11:42.837Z,99.99
2018-04-23T00:13:04.887Z,99.99
2018-04-23T00:14:26.948Z,99.99
2018-04-23T00:15:48.488Z,99.99
2018-04-23T00:17:10.306Z,99.99
2018-04-23T00:18:32.425Z,99.99
2018-04-23T00:19:54.008Z,99.99
2018-04-23T00:21:15.810Z,99.99
2018-04-23T00:22:37.347Z,99.99
2018-04-23T00:23:59.395Z,99.99
2018-04-23T00:25:21.190Z,99.99
2018-04-23T00:26:42.985Z,99.99
2018-04-23T00:28:04.515Z,99.99
2018-04-23T00:29:26.047Z,99.99
2018-04-23T00:30:47.849Z,99.99
2018-04-23T00:32:09.916Z,99.99
2018-04-23T00:33:31.714Z,99.99
2018-04-23T00:34:53.241Z,99.99
2018-04-23T00:36:14.795Z,99.99
2018-04-23T00:37:36.582Z,99.99
2018-04-23T00:38:58.645Z,99.99
2018-04-23T00:40:20.432Z,99.99
2018-04-23T00:41:41.961Z,99.99
2018-04-23T00:43:03.505Z,99.99
2018-04-23T00:44:25.295Z,99.99
2018-04-23T00:45:47.361Z,99.99
2018-04-23T00:47:09.165Z,99.99
2018-04-23T00:48:30.706Z,99.99
2018-04-23T00:49:52.495Z,99.99
2018-04-23T00:51:14.296Z,99.99
2018-04-23T00:52:36.377Z,99.99
2018-04-23T00:53:58.430Z,99.99
2018-04-23T00:55:20.505Z,99.99
2018-04-23T00:56:42.565Z,99.99
2018-04-23T00:58:04.632Z,99.99
2018-04-23T00:59:26.173Z,99.99
2018-04-23T01:00:48.244Z,99.99
2018-04-23T01:02:10.314Z,99.99
2018-04-23T01:03:32.378Z,99.99
2018-04-23T01:04:53.927Z,99.99
2018-04-23T01:06:15.730Z,99.99
2018-04-23T01:07:37.803Z,99.99
2018-04-23T01:08:59.858Z,99.99
2018-04-23T01:10:21.667Z,99.99
2018-04-23T01:11:43.201Z,99.99
2018-04-23T01:13:04.994Z,99.99
2018-04-23T01:14:26.524Z,99.99
2018-04-23T01:15:48.345Z,99.99
2018-04-23T01:17:10.439Z,99.99
2018-04-23T01:18:32.255Z,99.99
2018-04-23T01:19:53.782Z,99.99
2018-04-23T01:21:15.313Z,99.99
2018-04-23T01:22:37.111Z,99.99
2018-04-23T01:23:59.168Z,99.99
2018-04-23T01:25:21.231Z,99.99
2018-04-23T01:26:43.311Z,99.99
2018-04-23T01:28:04.855Z,99.99
2018-04-23T01:29:26.389Z,99.99
2018-04-23T01:30:48.197Z,99.99
2018-04-23T01:32:09.741Z,99.99
2018-04-23T01:33:31.831Z,99.99
2018-04-23T01:34:53.890Z,99.99
2018-04-23T01:36:15.685Z,99.99
2018-04-23T01:37:37.745Z,99.99
2018-04-23T01:38:59.815Z,99.99
2018-04-23T01:40:21.603Z,99.99
2018-04-23T01:41:43.668Z,99.99
2018-04-23T01:43:05.467Z,99.99
2018-04-23T01:44:27.538Z,99.99
2018-04-23T01:45:49.332Z,99.99
2018-04-23T01:47:11.131Z,99.99
2018-04-23T01:48:33.198Z,99.99
2018-04-23T01:49:54.467Z,99.99
2018-04-23T01:51:16.269Z,99.99
2018-04-23T01:52:37.798Z,99.99
2018-04-23T01:53:59.852Z,99.99
2018-04-23T01:55:21.659Z,99.99
2018-04-23T01:56:43.720Z,99.99
2018-04-23T01:58:05.512Z,99.99
2018-04-23T01:59:27.317Z,99.99
2018-04-23T02:00:49.364Z,99.99
2018-04-23T02:02:11.175Z,99.99
2018-04-23T02:03:32.989Z,99.99
2018-04-23T02:04:54.781Z,99.99
2018-04-23T02:06:16.848Z,99.99
2018-04-23T02:07:38.653Z,99.99
2018-04-23T02:09:00.176Z,99.99
2018-04-23T02:10:21.978Z,99.99
2018-04-23T02:11:44.055Z,99.99
2018-04-23T02:13:05.330Z,99.99
2018-04-23T02:14:27.131Z,99.99
2018-04-23T02:15:49.179Z,99.99
2018-04-23T02:17:10.717Z,99.99
2018-04-23T02:18:32.497Z,99.99
2018-04-23T02:19:54.066Z,99.99
2018-04-23T02:21:16.010Z,99.99
2018-04-23T02:22:37.539Z,99.99
2018-04-23T02:23:59.096Z,99.99
2018-04-23T02:25:21.137Z,99.99
2018-04-23T02:26:43.197Z,99.99
2018-04-23T02:28:05.267Z,99.99
2018-04-23T02:29:26.548Z,99.99
2018-04-23T02:30:48.601Z,99.99
2018-04-23T02:32:10.652Z,99.99
2018-04-23T02:33:32.712Z,99.99
2018-04-23T02:34:54.515Z,99.99
2018-04-23T02:36:16.063Z,99.99
2018-04-23T02:37:37.601Z,99.99
2018-04-23T02:38:59.135Z,99.99
2018-04-23T02:40:20.672Z,99.99
2018-04-23T02:41:42.748Z,99.99
2018-04-23T02:43:04.542Z,99.99
2018-04-23T02:44:26.597Z,99.99
2018-04-23T02:45:48.143Z,99.99
2018-04-23T02:47:09.689Z,99.99
2018-04-23T02:48:31.231Z,99.99
2018-04-23T02:49:53.296Z,99.99
2018-04-23T02:51:15.111Z,99.99
2018-04-23T02:52:37.170Z,99.99
2018-04-23T02:53:59.241Z,99.99
2018-04-23T02:55:21.331Z,99.99
2018-04-23T02:56:42.890Z,99.99
2018-04-23T02:58:04.695Z,99.99
2018-04-23T02:59:26.242Z,99.99
2018-04-23T03:00:47.803Z,99.99
2018-04-23T03:02:09.858Z,99.99
2018-04-23T03:03:31.407Z,99.99
2018-04-23T03:04:53.025Z,99.99
2018-04-23T03:06:14.820Z,99.99
2018-04-23T03:07:36.628Z,99.99
2018-04-23T03:08:58.695Z,99.99
2018-04-23T03:10:20.764Z,99.99
2018-04-23T03:11:42.580Z,99.99
2018-04-23T03:13:04.651Z,99.99
2018-04-23T03:14:26.715Z,99.99
2018-04-23T03:15:48.772Z,99.99
2018-04-23T03:17:10.050Z,99.99
2018-04-23T03:18:31.853Z,99.99
2018-04-23T03:19:53.647Z,99.99
2018-04-23T03:21:14.922Z,99.99
2018-04-23T03:22:36.984Z,99.99
2018-04-23T03:23:58.766Z,99.99
2018-04-23T03:25:20.556Z,99.99
2018-04-23T03:26:42.624Z,99.99
2018-04-23T03:28:04.179Z,99.99
2018-04-23T03:29:26.256Z,99.99
2018-04-23T03:30:48.319Z,99.99
2018-04-23T03:32:10.121Z,99.99
2018-04-23T03:33:31.916Z,99.99
2018-04-23T03:34:53.971Z,99.99
2018-04-23T03:36:15.762Z,99.99
2018-04-23T03:37:37.569Z,99.99
2018-04-23T03:38:59.105Z,99.99
2018-04-23T03:40:20.898Z,99.99
2018-04-23T03:41:42.964Z,99.99
2018-04-23T03:43:05.035Z,99.99
2018-04-23T03:44:27.147Z,99.99
2018-04-23T03:45:48.633Z,99.99
2018-04-23T03:47:10.421Z,99.99
2018-04-23T03:48:32.467Z,99.99
2018-04-23T03:49:53.738Z,99.99
2018-04-23T03:51:15.519Z,99.99
2018-04-23T03:52:37.311Z,99.99
2018-04-23T03:53:58.836Z,99.99
2018-04-23T03:55:20.922Z,99.99
2018-04-23T03:56:42.997Z,99.99
2018-04-23T03:58:04.796Z,99.99
2018-04-23T03:59:26.609Z,99.99
2018-04-23T04:00:48.665Z,99.99
2018-04-23T04:02:10.713Z,99.99
2018-04-23T04:03:32.823Z,99.99
2018-04-23T04:04:54.893Z,99.99
2018-04-23T04:06:16.946Z,99.99
2018-04-23T04:07:38.486Z,99.99
2018-04-23T04:09:00.552Z,99.99
2018-04-23T04:10:22.380Z,99.99
2018-04-23T04:11:44.440Z,99.99
2018-04-23T04:13:06.250Z,99.99
2018-04-23T04:14:28.048Z,99.99
2018-04-23T04:15:49.852Z,99.99
2018-04-23T04:17:11.373Z,99.99
2018-04-23T04:18:33.466Z,99.99
2018-04-23T04:19:54.993Z,99.99
2018-04-23T04:21:16.794Z,99.99
2018-04-23T04:22:38.864Z,99.99
2018-04-23T04:24:00.916Z,99.99
2018-04-23T04:25:22.990Z,99.99
2018-04-23T04:26:44.525Z,99.99
2018-04-23T04:28:06.577Z,99.99
2018-04-23T04:29:28.369Z,99.99
2018-04-23T04:30:50.428Z,99.99
2018-04-23T04:32:12.234Z,99.99
2018-04-23T04:33:34.337Z,99.99
2018-04-23T04:34:56.401Z,99.99
2018-04-23T04:36:17.935Z,99.99
2018-04-23T04:37:39.742Z,99.99
2018-04-23T04:39:01.560Z,99.99
2018-04-23T04:40:23.618Z,99.99
2018-04-23T04:41:45.684Z,99.99
2018-04-23T04:43:07.502Z,99.99
2018-04-23T04:44:29.583Z,99.99
2018-04-23T04:45:51.150Z,99.99
2018-04-23T04:47:13.212Z,99.99
2018-04-23T04:48:35.016Z,99.99
2018-04-23T04:49:57.077Z,99.99
2018-04-23T04:51:19.156Z,99.99
2018-04-23T04:52:41.330Z,99.99
2018-04-23T04:54:02.867Z,99.99
2018-04-23T04:55:24.684Z,99.99
2018-04-23T04:56:46.749Z,99.99
2018-04-23T04:58:08.858Z,99.99
2018-04-23T04:59:30.396Z,99.99
2018-04-23T05:00:51.931Z,99.99
2018-04-23T05:02:13.478Z,99.99
2018-04-23T05:03:35.542Z,99.99
2018-04-23T05:04:57.370Z,99.99
2018-04-23T05:06:19.184Z,99.99
2018-04-23T05:07:41.006Z,99.99
2018-04-23T05:09:03.062Z,99.99
2018-04-23T05:10:24.858Z,99.99
2018-04-23T05:11:46.442Z,99.99
2018-04-23T05:13:08.596Z,99.99
2018-04-23T05:14:30.674Z,99.99
2018-04-23T05:15:52.748Z,99.99
2018-04-23T05:17:14.576Z,99.99
2018-04-23T05:18:36.659Z,99.99
2018-04-23T05:19:58.714Z,99.99
2018-04-23T05:21:20.542Z,99.99
2018-04-23T05:22:42.084Z,99.99
2018-04-23T05:24:04.156Z,99.99
2018-04-23T05:25:26.226Z,99.99
2018-04-23T05:26:48.042Z,99.99
2018-04-23T05:28:10.093Z,99.99
2018-04-23T05:29:31.893Z,99.99
2018-04-23T05:30:53.442Z,99.99
2018-04-23T05:32:15.515Z,99.99
2018-04-23T05:33:37.309Z,99.99
2018-04-23T05:34:59.377Z,99.99
2018-04-23T05:36:21.449Z,99.99
2018-04-23T05:37:43.271Z,99.99
2018-04-23T05:39:05.078Z,99.99
2018-04-23T05:40:27.169Z,99.99
2018-04-23T05:41:48.974Z,99.99
2018-04-23T05:43:10.592Z,99.99
2018-04-23T05:44:32.411Z,99.99
2018-04-23T05:45:54.221Z,99.99
2018-04-23T05:47:15.765Z,99.99
2018-04-23T05:48:37.606Z,99.99
2018-04-23T05:49:59.146Z,99.99
2018-04-23T05:51:20.969Z,99.99
2018-04-23T05:52:43.079Z,99.99
2018-04-23T05:54:05.143Z,99.99
2018-04-23T05:55:26.678Z,99.99
2018-04-23T05:56:48.753Z,99.99
2018-04-23T05:58:10.819Z,99.99
2018-04-23T05:59:32.632Z,99.99
2018-04-23T06:00:54.707Z,99.99
2018-04-23T06:02:16.780Z,99.99
2018-04-23T06:03:38.848Z,99.99
2018-04-23T06:05:00.932Z,99.99
2018-04-23T06:06:22.839Z,99.99
2018-04-23T06:07:44.384Z,99.99
2018-04-23T06:09:06.443Z,99.99
2018-04-23T06:10:28.259Z,99.99
2018-04-23T06:11:50.305Z,99.99
2018-04-23T06:13:11.836Z,99.99
2018-04-23T06:14:33.405Z,99.99
2018-04-23T06:15:55.501Z,99.99
2018-04-23T06:17:17.299Z,99.99
2018-04-23T06:18:39.139Z,99.99
2018-04-23T06:20:01.214Z,99.99
2018-04-23T06:21:23.004Z,99.99
2018-04-23T06:22:45.070Z,99.99
2018-04-23T06:24:07.243Z,99.99
2018-04-23T06:25:29.330Z,99.99
2018-04-23T06:26:51.935Z,99.99
2018-04-23T06:28:14.388Z,99.99
2018-04-23T06:29:35.738Z,99.99
2018-04-23T06:30:57.814Z,99.99
2018-04-23T06:32:19.353Z,99.99
2018-04-23T06:33:40.911Z,99.99
2018-04-23T06:35:02.243Z,99.99
2018-04-23T06:36:23.790Z,99.99
2018-04-23T06:37:45.606Z,99.99
2018-04-23T06:39:07.685Z,99.99
2018-04-23T06:40:29.503Z,99.99
2018-04-23T06:41:51.315Z,99.99
2018-04-23T06:43:13.384Z,99.99
2018-04-23T06:44:35.189Z,99.99
2018-04-23T06:45:57.283Z,99.99
2018-04-23T06:47:19.110Z,99.99
2018-04-23T06:48:40.935Z,99.99
2018-04-23T06:50:03.012Z,99.02
2018-04-23T06:51:25.123Z,94.43
2018-04-23T06:52:47.202Z,89.39
2018-04-23T06:54:09.276Z,86.04
2018-04-23T06:55:31.360Z,83.6
2018-04-23T06:56:53.159Z,81.41
2018-04-23T06:58:15.243Z,79.02
2018-04-23T06:59:37.323Z,78.42
2018-04-23T07:00:59.397Z,81.3
2018-04-23T07:02:21.212Z,83.99
2018-04-23T07:03:42.783Z,85.71
2018-04-23T07:05:05.033Z,87.6
2018-04-23T07:06:27.182Z,89.11
2018-04-23T07:07:49.002Z,88.09
2018-04-23T07:09:10.794Z,86.44
2018-04-23T07:10:32.402Z,88.43
2018-04-23T07:11:54.271Z,90.12
2018-04-23T07:13:16.086Z,91.53
2018-04-23T07:14:38.174Z,92.65
2018-04-23T07:15:59.997Z,94.82
2018-04-23T07:17:21.570Z,96.94
2018-04-23T07:18:43.399Z,98.49
2018-04-23T07:20:05.210Z,98.97
2018-04-23T07:21:27.025Z,99.45
2018-04-23T07:22:49.116Z,99.99
2018-04-23T07:24:10.964Z,99.99
2018-04-23T07:25:32.788Z,99.99
2018-04-23T07:26:54.075Z,99.99
2018-04-23T07:28:16.152Z,99.99
2018-04-23T07:29:38.279Z,99.99
2018-04-23T07:31:00.099Z,99.99
2018-04-23T07:32:21.917Z,99.99
2018-04-23T07:33:43.492Z,99.99
2018-04-23T07:35:05.302Z,99.99
2018-04-23T07:36:27.109Z,99.99
2018-04-23T07:37:48.942Z,99.99
2018-04-23T07:39:10.487Z,99.99
2018-04-23T07:40:32.340Z,99.99
2018-04-23T07:41:54.187Z,99.99
2018-04-23T07:43:15.781Z,99.99
2018-04-23T07:44:37.609Z,99.99
2018-04-23T07:45:59.406Z,99.99
2018-04-23T07:47:21.255Z,99.99
2018-04-23T07:48:43.325Z,99.99
2018-04-23T07:50:05.137Z,99.99
2018-04-23T07:51:27.209Z,99.99
2018-04-23T07:52:49.026Z,99.99
2018-04-23T07:54:11.197Z,99.99
2018-04-23T07:55:32.765Z,99.99
2018-04-23T07:56:54.820Z,99.99
2018-04-23T07:58:16.882Z,99.99
2018-04-23T07:59:38.962Z,99.99
2018-04-23T08:01:00.795Z,99.99
2018-04-23T08:02:22.891Z,99.99
2018-04-23T08:03:44.707Z,99.99
2018-04-23T08:05:06.791Z,99.99
2018-04-23T08:06:28.663Z,99.99
2018-04-23T08:07:50.854Z,99.99
2018-04-23T08:09:12.686Z,99.99
2018-04-23T08:10:34.760Z,99.99
2018-04-23T08:11:56.586Z,99.99
2018-04-23T08:13:18.716Z,99.99
2018-04-23T08:14:40.521Z,99.99
2018-04-23T08:16:02.594Z,99.99
2018-04-23T08:17:24.675Z,99.99
2018-04-23T08:18:46.517Z,99.99
2018-04-23T08:20:08.319Z,99.99
2018-04-23T08:21:30.384Z,99.99
2018-04-23T08:22:52.462Z,99.99
2018-04-23T08:24:14.552Z,99.99
2018-04-23T08:25:36.438Z,99.99
2018-04-23T08:26:57.999Z,99.99
2018-04-23T08:28:19.933Z,99.99
2018-04-23T08:29:41.743Z,99.99
2018-04-23T08:31:03.837Z,99.99
2018-04-23T08:32:25.653Z,99.99
2018-04-23T08:33:47.759Z,99.99
2018-04-23T08:35:09.841Z,99.99
2018-04-23T08:36:31.924Z,99.99
2018-04-23T08:37:53.268Z,99.99
2018-04-23T08:39:15.346Z,99.99
2018-04-23T08:40:37.157Z,99.99
2018-04-23T08:41:58.983Z,99.99
2018-04-23T08:43:20.533Z,99.99
2018-04-23T08:44:42.354Z,99.99
2018-04-23T08:46:03.919Z,99.99
2018-04-23T08:47:26.147Z,99.99
2018-04-23T08:48:47.972Z,99.99
2018-04-23T08:50:10.142Z,99.99
2018-04-23T08:51:31.976Z,99.99
2018-04-23T08:52:53.775Z,99.99
2018-04-23T08:54:15.878Z,99.99
2018-04-23T08:55:37.711Z,99.99
2018-04-23T08:56:59.624Z,99.99
2018-04-23T08:58:21.169Z,99.99
2018-04-23T08:59:42.961Z,99.99
2018-04-23T09:01:04.533Z,99.99
2018-04-23T09:02:26.670Z,99.99
2018-04-23T09:03:48.761Z,99.99
2018-04-23T09:05:10.842Z,99.99
2018-04-23T09:06:32.652Z,99.99
2018-04-23T09:07:54.464Z,99.99
2018-04-23T09:09:16.270Z,99.99
2018-04-23T09:10:38.333Z,99.99
2018-04-23T09:11:59.873Z,99.99
2018-04-23T09:13:21.700Z,99.99
2018-04-23T09:14:43.757Z,99.99
2018-04-23T09:16:05.827Z,99.99
2018-04-23T09:17:27.954Z,99.99
2018-04-23T09:18:50.144Z,99.99
2018-04-23T09:20:12.232Z,99.99
2018-04-23T09:21:34.307Z,99.99
2018-04-23T09:22:56.121Z,99.99
2018-04-23T09:24:17.911Z,99.99
2018-04-23T09:25:39.755Z,99.99
2018-04-23T09:27:01.583Z,99.99
2018-04-23T09:28:23.393Z,99.99
2018-04-23T09:29:45.205Z,98.92
2018-04-23T09:31:07.004Z,98.63
2018-04-23T09:32:29.067Z,98.44
2018-04-23T09:33:51.151Z,99.69
2018-04-23T09:35:13.289Z,97.67
2018-04-23T09:36:35.382Z,97.57
2018-04-23T09:37:57.491Z,97.76
2018-04-23T09:39:19.295Z,97.76
2018-04-23T09:40:41.391Z,97.38
2018-04-23T09:42:03.492Z,97.91
2018-04-23T09:43:25.561Z,94.78
2018-04-23T09:44:47.748Z,93.76
2018-04-23T09:46:09.816Z,93.76
2018-04-23T09:47:31.364Z,93.86
2018-04-23T09:48:53.456Z,93.86
2018-04-23T09:50:15.569Z,94.54
2018-04-23T09:51:37.648Z,95.16
2018-04-23T09:52:59.720Z,98.24
2018-04-23T09:54:21.793Z,99.99
2018-04-23T09:55:43.607Z,99.99
2018-04-23T09:57:05.419Z,99.99
2018-04-23T09:58:27.484Z,99.99
2018-04-23T09:59:49.350Z,99.99
2018-04-23T10:01:11.161Z,99.99
2018-04-23T10:02:33.339Z,99.99
2018-04-23T10:03:55.155Z,99.99
2018-04-23T10:05:16.964Z,99.99
2018-04-23T10:06:38.510Z,99.99
2018-04-23T10:08:00.322Z,99.99
2018-04-23T10:09:22.151Z,99.99
2018-04-23T10:10:43.987Z,99.99
2018-04-23T10:12:06.120Z,99.99
2018-04-23T10:13:27.675Z,99.99
2018-04-23T10:14:49.776Z,99.99
2018-04-23T10:16:11.598Z,99.99
2018-04-23T10:17:33.146Z,99.99
2018-04-23T10:18:55.222Z,99.99
2018-04-23T10:20:16.789Z,99.99
2018-04-23T10:21:38.866Z,99.99
2018-04-23T10:23:00.692Z,99.99
2018-04-23T10:24:22.504Z,99.99
2018-04-23T10:25:44.586Z,99.99
2018-04-23T10:27:06.672Z,99.99
2018-04-23T10:28:28.488Z,99.99
2018-04-23T10:29:50.645Z,99.99
2018-04-23T10:31:12.731Z,99.99
2018-04-23T10:32:34.962Z,99.99
2018-04-23T10:33:56.761Z,99.68
2018-04-23T10:35:18.573Z,99.99
2018-04-23T10:36:40.196Z,99.99
2018-04-23T10:38:02.008Z,99.99
2018-04-23T10:39:23.567Z,99.99
2018-04-23T10:40:45.660Z,99.99
2018-04-23T10:42:07.724Z,99.99
2018-04-23T10:43:29.550Z,98.77
2018-04-23T10:44:51.624Z,98.86
2018-04-23T10:46:13.430Z,98.86
2018-04-23T10:47:35.236Z,99.99
2018-04-23T10:48:57.341Z,97.42
2018-04-23T10:50:19.148Z,95.74
2018-04-23T10:51:40.685Z,94.87
2018-04-23T10:53:01.703Z,91.99
2018-04-23T10:54:23.766Z,92.85
2018-04-23T10:55:45.593Z,96.22
2018-04-23T10:57:07.696Z,96.75
2018-04-23T10:58:29.503Z,93.87
2018-04-23T10:59:51.314Z,91.41
2018-04-23T11:01:13.513Z,91.75
2018-04-23T11:02:35.059Z,93.19
2018-04-23T11:03:56.858Z,92.95
2018-04-23T11:05:18.671Z,92.71
2018-04-23T11:06:40.506Z,95.75
2018-04-23T11:08:02.586Z,96.8
2018-04-23T11:09:24.131Z,96.7
2018-04-23T11:10:46.256Z,96.13
2018-04-23T11:12:08.073Z,97.71
2018-04-23T11:13:29.887Z,97.66
2018-04-23T11:14:51.973Z,98.34
2018-04-23T11:16:14.068Z,98.43
2018-04-23T11:17:35.885Z,99.78
2018-04-23T11:18:57.688Z,98.05
2018-04-23T11:20:19.505Z,97.71
2018-04-23T11:21:41.590Z,96.85
2018-04-23T11:23:03.695Z,93.68
2018-04-23T11:24:25.524Z,93.73
2018-04-23T11:25:47.331Z,93.29
2018-04-23T11:27:09.408Z,88.87
2018-04-23T11:28:31.203Z,86.85
2018-04-23T11:29:52.778Z,88.24
2018-04-23T11:31:14.344Z,88.57
2018-04-23T11:32:36.450Z,88.33
2018-04-23T11:33:57.481Z,87.46
2018-04-23T11:35:19.572Z,86.02
2018-04-23T11:36:41.662Z,86.99
2018-04-23T11:38:03.744Z,87.46
2018-04-23T11:39:25.841Z,87.95
2018-04-23T11:40:47.676Z,88.81
2018-04-23T11:42:09.530Z,89.43
2018-04-23T11:43:31.069Z,87.03
2018-04-23T11:44:53.159Z,86.74
2018-04-23T11:46:15.393Z,87.84
2018-04-23T11:47:37.455Z,86.98
2018-04-23T11:48:59.256Z,84.61
2018-04-23T11:50:21.338Z,81.33
2018-04-23T11:51:43.415Z,82.39
2018-04-23T11:53:05.294Z,82.01
2018-04-23T11:54:27.195Z,82.59
2018-04-23T11:55:49.265Z,83.45
2018-04-23T11:57:11.093Z,82.01
2018-04-23T11:58:33.181Z,83.41
2018-04-23T11:59:55.297Z,82.5
2018-04-23T12:01:17.385Z,85.98
2018-04-23T12:02:39.489Z,87.96
2018-04-23T12:04:01.328Z,90.07
2018-04-23T12:05:23.125Z,90.5
2018-04-23T12:06:45.222Z,86.65
2018-04-23T12:08:07.295Z,86.65
2018-04-23T12:09:29.367Z,87.62
2018-04-23T12:10:50.655Z,87.42
2018-04-23T12:12:12.250Z,87.37
2018-04-23T12:13:34.341Z,86.02
2018-04-23T12:14:56.430Z,85.58
2018-04-23T12:16:18.007Z,83.47
2018-04-23T12:17:39.821Z,83.18
2018-04-23T12:19:01.892Z,82.93
2018-04-23T12:20:23.700Z,80.52
2018-04-23T12:21:45.735Z,80.81
2018-04-23T12:23:07.837Z,79.94
2018-04-23T12:24:29.398Z,80.77
2018-04-23T12:25:51.469Z,80.68
2018-04-23T12:27:13.275Z,80.48
2018-04-23T12:28:34.818Z,79.33
2018-04-23T12:29:56.886Z,82.31
2018-04-23T12:31:18.979Z,80.96
2018-04-23T12:32:40.852Z,81.73
2018-04-23T12:34:02.922Z,79
2018-04-23T12:35:24.743Z,79.19
2018-04-23T12:36:46.298Z,79.48
2018-04-23T12:38:08.383Z,83.67
2018-04-23T12:39:30.195Z,82.61
2018-04-23T12:40:52.429Z,81.75
2018-04-23T12:42:14.511Z,82.14
2018-04-23T12:43:36.350Z,82.14
2018-04-23T12:44:58.168Z,81.75
2018-04-23T12:46:20.384Z,82.71
2018-04-23T12:47:42.223Z,81.56
2018-04-23T12:49:03.766Z,81.7
2018-04-23T12:50:25.863Z,82.17
2018-04-23T12:51:47.408Z,83.23
2018-04-23T12:53:09.220Z,83.23
2018-04-23T12:54:31.302Z,82.85
2018-04-23T12:55:53.378Z,82.17
2018-04-23T12:57:15.200Z,85.83
2018-04-23T12:58:37.025Z,83.81
2018-04-23T12:59:59.109Z,83.14
2018-04-23T13:01:21.212Z,83.23
2018-04-23T13:02:43.015Z,84.29
2018-04-23T13:04:04.584Z,82.75
2018-04-23T13:05:26.687Z,83.23
2018-04-23T13:06:48.775Z,84.83
2018-04-23T13:08:10.599Z,83.86
2018-04-23T13:09:32.676Z,83.34
2018-04-23T13:10:54.753Z,84.4
2018-04-23T13:12:16.678Z,85.51
2018-04-23T13:13:38.526Z,85.22
2018-04-23T13:15:00.607Z,84.11
2018-04-23T13:16:22.694Z,82.14
2018-04-23T13:17:44.253Z,83.04
2018-04-23T13:19:06.329Z,81.5
2018-04-23T13:20:28.154Z,83.39
2018-04-23T13:21:50.246Z,83.48
2018-04-23T13:23:12.070Z,82.52
2018-04-23T13:24:34.153Z,82.04
2018-04-23T13:25:56.240Z,83.77
2018-04-23T13:27:18.044Z,83.39
2018-04-23T13:28:40.167Z,82.71
2018-04-23T13:30:02.252Z,82.23
2018-04-23T13:31:24.359Z,83.29
2018-04-23T13:32:46.200Z,84.06
2018-04-23T13:34:08.020Z,84.34
2018-04-23T13:35:29.818Z,83.09
2018-04-23T13:36:51.955Z,83.42
2018-04-23T13:38:14.031Z,84.67
2018-04-23T13:39:36.089Z,81.7
2018-04-23T13:40:58.192Z,79.86
2018-04-23T13:42:19.755Z,80.63
2018-04-23T13:43:41.977Z,81.02
2018-04-23T13:45:03.528Z,80.06
2018-04-23T13:46:25.638Z,80.73
2018-04-23T13:47:47.759Z,80.25
2018-04-23T13:49:09.578Z,81.21
2018-04-23T13:50:31.415Z,80.54
2018-04-23T13:51:53.514Z,80.54
2018-04-23T13:53:15.109Z,79.86
2018-04-23T13:54:37.279Z,80.63
2018-04-23T13:55:59.349Z,80.25
2018-04-23T13:57:21.554Z,80.25
2018-04-23T13:58:43.362Z,80.35
2018-04-23T14:00:05.441Z,80.54
2018-04-23T14:01:27.331Z,80.73
2018-04-23T14:02:49.440Z,81.7
2018-04-23T14:04:11.258Z,83.04
2018-04-23T14:05:32.835Z,82.37
2018-04-23T14:06:54.957Z,83.04
2018-04-23T14:08:16.830Z,80.73
2018-04-23T14:09:38.653Z,80.15
2018-04-23T14:11:00.732Z,81.16
2018-04-23T14:12:22.562Z,81.25
2018-04-23T14:13:44.360Z,80.73
2018-04-23T14:15:06.484Z,81.12
2018-04-23T14:16:28.581Z,80.83
2018-04-23T14:17:50.120Z,82.52
2018-04-23T14:19:12.226Z,81.75
2018-04-23T14:20:33.839Z,83.58
2018-04-23T14:21:55.657Z,84.78
2018-04-23T14:23:17.765Z,83.63
2018-04-23T14:24:39.598Z,84.5
2018-04-23T14:26:01.683Z,83.87
2018-04-23T14:27:23.509Z,84.01
2018-04-23T14:28:45.611Z,84.4
2018-04-23T14:30:07.435Z,84.25
2018-04-23T14:31:29.509Z,83.86
2018-04-23T14:32:51.340Z,82.27
2018-04-23T14:34:13.455Z,82.27
2018-04-23T14:35:35.307Z,81.83
2018-04-23T14:36:57.391Z,81.63
2018-04-23T14:38:19.483Z,83.04
2018-04-23T14:39:41.061Z,84.67
2018-04-23T14:41:03.151Z,83.52
2018-04-23T14:42:24.998Z,82.27
2018-04-23T14:43:46.572Z,82.85
2018-04-23T14:45:08.668Z,83.23
2018-04-23T14:46:31.038Z,82.65
2018-04-23T14:47:52.878Z,83.96
2018-04-23T14:49:14.961Z,84.92
2018-04-23T14:50:37.059Z,80.35
2018-04-23T14:51:59.182Z,80.88
2018-04-23T14:53:21.262Z,81.75
2018-04-23T14:54:43.090Z,80.79
2018-04-23T14:56:04.905Z,80.5
2018-04-23T14:57:26.735Z,80.11
2018-04-23T14:58:48.845Z,80.02
2018-04-23T15:00:10.961Z,79.53
2018-04-23T15:01:33.050Z,80.36
2018-04-23T15:02:55.141Z,81.99
2018-04-23T15:04:17.234Z,81.28
2018-04-23T15:05:39.346Z,81.86
2018-04-23T15:07:01.159Z,82.24
2018-04-23T15:08:23.038Z,81.67
2018-04-23T15:09:45.137Z,81.81
2018-04-23T15:11:06.950Z,83.15
2018-04-23T15:12:29.050Z,81.81
2018-04-23T15:13:51.141Z,81.65
2018-04-23T15:15:12.961Z,80.6
2018-04-23T15:16:34.766Z,79.92
2018-04-23T15:17:56.643Z,80.88
2018-04-23T15:19:18.468Z,80.84
2018-04-23T15:20:40.579Z,83.3
2018-04-23T15:22:02.146Z,84.07
2018-04-23T15:23:23.985Z,83.97
2018-04-23T15:24:46.083Z,84.64
2018-04-23T15:26:08.179Z,85.66
2018-04-23T15:27:30.268Z,85.75
2018-04-23T15:28:52.542Z,83.97
2018-04-23T15:30:14.689Z,83.3
2018-04-23T15:31:36.239Z,83.25
2018-04-23T15:32:58.064Z,84.01
2018-04-23T15:34:19.977Z,82.38
2018-04-23T15:35:42.115Z,83.53
2018-04-23T15:37:04.269Z,83.15
2018-04-23T15:38:26.133Z,83.4
2018-04-23T15:39:48.239Z,84.26
2018-04-23T15:41:10.466Z,83.74
2018-04-23T15:42:32.300Z,82.4
2018-04-23T15:43:54.385Z,82.3
2018-04-23T15:45:16.221Z,83.54
2018-04-23T15:46:38.315Z,81.76
2018-04-23T15:48:00.407Z,82.82
2018-04-23T15:49:22.254Z,82.15
2018-04-23T15:50:44.118Z,82.43
2018-04-23T15:52:06.202Z,80.99
2018-04-23T15:53:28.038Z,80.99
2018-04-23T15:54:50.160Z,82.24
2018-04-23T15:56:12.283Z,83.78
2018-04-23T15:57:34.387Z,84.64
2018-04-23T15:58:56.459Z,83.78
2018-04-23T16:00:18.572Z,82.86
2018-04-23T16:01:40.677Z,84.07
2018-04-23T16:03:02.564Z,82.73
2018-04-23T16:04:24.657Z,83.01
2018-04-23T16:05:46.779Z,82.78
2018-04-23T16:07:08.644Z,82.78
2018-04-23T16:08:30.459Z,84.31
2018-04-23T16:09:52.035Z,84.89
2018-04-23T16:11:13.861Z,85.81
2018-04-23T16:12:35.699Z,86.48
2018-04-23T16:13:57.818Z,87.05
2018-04-23T16:15:19.909Z,85.91
2018-04-23T16:16:42.014Z,86.77
2018-04-23T16:18:04.151Z,88.31
2018-04-23T16:19:26.240Z,87.73
2018-04-23T16:20:48.058Z,87.54
2018-04-23T16:22:10.178Z,87.11
2018-04-23T16:23:32.290Z,87.78
2018-04-23T16:24:54.370Z,86.72
2018-04-23T16:26:16.470Z,87.4
2018-04-23T16:27:38.342Z,86.82
2018-04-23T16:29:00.437Z,86.54
2018-04-23T16:30:22.261Z,86.72
2018-04-23T16:31:44.349Z,87.49
2018-04-23T16:33:06.460Z,89.7
2018-04-23T16:34:28.298Z,91.62
2018-04-23T16:35:50.400Z,92
2018-04-23T16:37:12.244Z,90.37
2018-04-23T16:38:34.083Z,90.47
2018-04-23T16:39:56.234Z,90.95
2018-04-23T16:41:18.346Z,89.61
2018-04-23T16:42:39.916Z,89.41
2018-04-23T16:44:02.035Z,90.99
2018-04-23T16:45:23.878Z,90.37
2018-04-23T16:46:45.748Z,93.35
2018-04-23T16:48:07.576Z,93.92
2018-04-23T16:49:29.681Z,93.06
2018-04-23T16:50:51.517Z,92.58
2018-04-23T16:52:13.639Z,92.68
2018-04-23T16:53:35.496Z,93.59
2018-04-23T16:54:57.383Z,95.79
2018-04-23T16:56:19.545Z,96.94
2018-04-23T16:57:41.682Z,96.85
2018-04-23T16:59:03.762Z,96.32
2018-04-23T17:00:25.845Z,97.38
2018-04-23T17:01:47.986Z,98
2018-04-23T17:03:09.856Z,98.67
2018-04-23T17:04:32.008Z,98.96
2018-04-23T17:05:53.858Z,98.57
2018-04-23T17:07:15.981Z,98.57
2018-04-23T17:08:37.848Z,98.96
2018-04-23T17:10:00.045Z,99.63
2018-04-23T17:11:22.141Z,99.99
2018-04-23T17:12:44.300Z,98.43
2018-04-23T17:14:06.161Z,97.28
2018-04-23T17:15:28.035Z,96.22
2018-04-23T17:16:49.895Z,98
2018-04-23T17:18:11.763Z,97.42
2018-04-23T17:19:33.656Z,97.8
2018-04-23T17:20:55.793Z,98.38
2018-04-23T17:22:17.660Z,99.82
2018-04-23T17:23:39.288Z,99.91
2018-04-23T17:25:00.621Z,99.05
2018-04-23T17:26:22.446Z,98.1
2018-04-23T17:27:44.347Z,98.96
2018-04-23T17:29:06.212Z,98.81
2018-04-23T17:30:28.337Z,99.99
2018-04-23T17:31:50.455Z,99.99
2018-04-23T17:33:12.590Z,99.99
2018-04-23T17:34:34.697Z,99.99
2018-04-23T17:35:56.276Z,99.99